createdAt,value
2022-11-08T00:00:37.954Z,84.50
2022-11-08T00:03:46.016Z,84.50
2022-11-08T00:06:48.312Z,84.30
2022-11-08T00:09:50.307Z,84.60
2022-11-08T00:12:52.171Z,84.80
2022-11-08T00:15:54.029Z,84.40
2022-11-08T00:18:55.978Z,84.50
2022-11-08T00:21:58.027Z,84.50
2022-11-08T00:25:00.020Z,84.70
2022-11-08T00:28:01.929Z,84.50
2022-11-08T00:31:07.045Z,84.60
2022-11-08T00:34:08.956Z,84.50
2022-11-08T00:37:11.534Z,84.00
2022-11-08T00:40:13.568Z,84.80
2022-11-08T00:43:15.471Z,85.00
2022-11-08T00:46:17.449Z,85.90
2022-11-08T00:49:19.576Z,85.50
2022-11-08T00:52:21.530Z,85.10
2022-11-08T00:55:23.536Z,85.80
2022-11-08T00:58:27.692Z,85.90
2022-11-08T01:01:30.073Z,85.60
2022-11-08T01:04:32.054Z,86.10
2022-11-08T01:07:34.469Z,85.80
2022-11-08T01:10:36.571Z,85.40
2022-11-08T01:13:41.084Z,85.20
2022-11-08T01:16:43.264Z,84.90
2022-11-08T01:19:45.246Z,85.00
2022-11-08T01:22:47.177Z,84.90
2022-11-08T01:25:49.723Z,84.80
2022-11-08T01:28:52.137Z,84.70
2022-11-08T01:31:54.100Z,84.80
2022-11-08T01:34:55.984Z,85.00
2022-11-08T01:37:58.544Z,84.50
2022-11-08T01:41:00.626Z,84.70
2022-11-08T01:44:02.512Z,84.20
2022-11-08T01:47:04.447Z,85.20
2022-11-08T01:50:13.014Z,84.70
2022-11-08T01:53:14.973Z,85.10
2022-11-08T01:56:17.355Z,84.50
2022-11-08T01:59:19.712Z,84.10
2022-11-08T02:02:22.426Z,84.20
2022-11-08T02:05:24.441Z,84.20
2022-11-08T02:08:37.749Z,84.50
2022-11-08T02:11:40.548Z,84.30
2022-11-08T02:14:42.811Z,84.60
2022-11-08T02:17:44.723Z,84.50
2022-11-08T02:21:00.435Z,84.00
2022-11-08T02:24:09.535Z,84.30
2022-11-08T02:27:13.781Z,84.70
2022-11-08T02:30:15.755Z,84.40
2022-11-08T02:33:20.464Z,84.20
2022-11-08T02:36:24.434Z,84.00
2022-11-08T02:39:26.439Z,84.20
2022-11-08T02:42:28.377Z,84.00
2022-11-08T02:45:30.285Z,83.80
2022-11-08T02:48:32.155Z,84.00
2022-11-08T02:51:34.017Z,84.20
2022-11-08T02:54:35.967Z,84.10
2022-11-08T02:57:37.824Z,85.00
2022-11-08T03:00:40.202Z,85.20
2022-11-08T03:03:42.132Z,85.40
2022-11-08T03:06:44.033Z,85.30
2022-11-08T03:13:04.399Z,86.00
2022-11-08T03:16:06.969Z,85.60
2022-11-08T03:19:08.870Z,85.60
2022-11-08T03:22:10.761Z,85.30
2022-11-08T03:25:13.525Z,85.50
2022-11-08T03:28:19.072Z,85.40
2022-11-08T03:31:23.612Z,84.90
2022-11-08T03:34:25.506Z,84.80
2022-11-08T03:37:27.586Z,84.20
2022-11-08T03:40:29.463Z,84.90
2022-11-08T03:43:31.380Z,84.90
2022-11-08T03:46:33.305Z,85.20
2022-11-08T03:49:35.158Z,85.50
2022-11-08T03:52:41.347Z,85.40
2022-11-08T03:55:43.251Z,84.60
2022-11-08T03:58:45.194Z,84.00
2022-11-08T04:01:47.243Z,84.20
2022-11-08T04:04:51.738Z,84.60
2022-11-08T04:07:53.602Z,84.40
2022-11-08T04:10:56.570Z,83.90
2022-11-08T04:13:58.467Z,84.00
2022-11-08T04:17:00.361Z,83.80
2022-11-08T04:20:02.338Z,84.60
2022-11-08T04:23:04.460Z,84.40
2022-11-08T04:26:08.384Z,84.80
2022-11-08T04:29:10.692Z,84.90
2022-11-08T04:32:12.693Z,84.70
2022-11-08T04:35:14.771Z,84.10
2022-11-08T04:38:17.185Z,84.80
2022-11-08T04:41:21.999Z,84.20
2022-11-08T04:44:24.055Z,84.30
2022-11-08T04:47:26.051Z,84.50
2022-11-08T04:50:27.985Z,84.80
2022-11-08T04:53:30.112Z,83.60
2022-11-08T04:56:32.118Z,83.70
2022-11-08T04:59:36.598Z,83.50
2022-11-08T05:02:40.911Z,84.00
2022-11-08T05:05:42.810Z,84.70
2022-11-08T05:08:44.982Z,84.00
2022-11-08T05:11:46.940Z,83.90
2022-11-08T05:14:48.834Z,84.00
2022-11-08T05:17:50.803Z,83.70
2022-11-08T05:20:56.946Z,84.00
2022-11-08T05:23:59.584Z,83.70
2022-11-08T05:27:01.477Z,83.80
2022-11-08T05:30:06.222Z,83.70
2022-11-08T05:33:08.735Z,83.40
2022-11-08T05:36:15.082Z,83.20
2022-11-08T05:39:16.951Z,83.50
2022-11-08T05:42:18.873Z,83.70
2022-11-08T05:45:22.087Z,84.30
2022-11-08T05:48:24.440Z,84.60
2022-11-08T05:51:26.354Z,84.80
2022-11-08T05:54:28.228Z,84.20
2022-11-08T05:57:30.043Z,83.70
2022-11-08T06:00:31.996Z,83.60
2022-11-08T06:03:36.955Z,83.70
2022-11-08T06:06:39.278Z,83.90
2022-11-08T06:09:41.275Z,84.70
2022-11-08T06:12:43.314Z,84.80
2022-11-08T06:15:45.379Z,84.40
2022-11-08T06:18:48.093Z,84.20
2022-11-08T06:21:50.218Z,83.90
2022-11-08T06:24:52.254Z,84.40
2022-11-08T06:27:54.248Z,84.40
2022-11-08T06:30:59.828Z,84.00
2022-11-08T06:34:02.548Z,84.60
2022-11-08T06:37:04.617Z,84.10
2022-11-08T06:40:07.403Z,84.10
2022-11-08T06:43:14.960Z,84.40
2022-11-08T06:46:20.183Z,84.00
2022-11-08T06:49:25.705Z,84.30
2022-11-08T06:52:27.852Z,84.30
2022-11-08T06:55:31.106Z,85.00
2022-11-08T06:58:33.249Z,84.30
2022-11-08T07:01:35.620Z,84.60
2022-11-08T07:04:37.792Z,83.50
2022-11-08T07:07:39.923Z,84.30
2022-11-08T07:10:41.981Z,83.80
2022-11-08T07:13:44.172Z,84.10
2022-11-08T07:16:46.178Z,83.70
2022-11-08T07:19:48.226Z,83.80
2022-11-08T07:22:54.081Z,83.90
2022-11-08T07:25:56.070Z,84.00
2022-11-08T07:28:58.205Z,83.40
2022-11-08T07:32:00.365Z,83.50
2022-11-08T07:35:02.394Z,83.10
2022-11-08T07:38:04.354Z,83.30
2022-11-08T07:41:06.614Z,83.80
2022-11-08T07:44:08.560Z,84.20
2022-11-08T07:47:10.996Z,85.10
2022-11-08T07:50:16.382Z,85.10
2022-11-08T07:53:20.273Z,85.30
2022-11-08T07:56:22.651Z,84.90
2022-11-08T07:59:27.180Z,84.70
2022-11-08T08:02:29.309Z,84.80
2022-11-08T08:05:35.272Z,84.60
2022-11-08T08:08:37.477Z,84.70
2022-11-08T08:11:39.529Z,84.60
2022-11-08T08:14:41.479Z,84.50
2022-11-08T08:17:43.547Z,84.80
2022-11-08T08:20:46.761Z,84.00
2022-11-08T08:23:48.787Z,84.10
2022-11-08T08:26:50.804Z,83.60
2022-11-08T08:29:52.843Z,84.10
2022-11-08T08:33:26.935Z,84.80
2022-11-08T08:36:24.712Z,84.20
2022-11-08T08:39:26.724Z,83.40
2022-11-08T08:42:28.720Z,82.70
2022-11-08T08:45:32.235Z,82.90
2022-11-08T08:48:34.471Z,82.60
2022-11-08T08:51:36.507Z,81.00
2022-11-08T08:54:38.551Z,78.90
2022-11-08T08:57:47.556Z,79.10
2022-11-08T09:04:11.711Z,78.10
2022-11-08T09:07:13.999Z,72.50
2022-11-08T09:10:16.093Z,68.80
2022-11-08T09:13:18.465Z,66.60
2022-11-08T09:16:20.727Z,62.20
2022-11-08T09:19:22.761Z,60.30
2022-11-08T09:22:24.826Z,58.90
2022-11-08T09:25:26.989Z,59.00
2022-11-08T09:28:31.721Z,59.30
2022-11-08T09:31:33.957Z,60.10
2022-11-08T09:34:36.119Z,60.30
2022-11-08T09:37:38.047Z,60.00
2022-11-08T09:40:52.788Z,61.60
2022-11-08T09:44:17.052Z,61.60
2022-11-08T09:47:34.690Z,61.90
2022-11-08T09:50:45.442Z,59.30
2022-11-08T09:53:58.943Z,61.30
2022-11-08T09:57:02.249Z,60.20
2022-11-08T10:00:12.710Z,59.20
2022-11-08T10:03:18.188Z,60.50
2022-11-08T10:06:35.394Z,62.10
2022-11-08T10:10:05.593Z,60.90
2022-11-08T10:13:10.796Z,60.30
2022-11-08T10:16:26.104Z,61.40
2022-11-08T10:20:03.670Z,59.80
2022-11-08T10:23:26.730Z,61.90
2022-11-08T10:26:36.980Z,62.70
2022-11-08T10:29:44.274Z,62.70
2022-11-08T10:32:50.480Z,62.60
2022-11-08T10:36:24.414Z,62.10
2022-11-08T10:39:34.934Z,61.50
2022-11-08T10:42:45.452Z,61.70
2022-11-08T10:45:47.440Z,62.20
2022-11-08T10:48:49.478Z,61.80
2022-11-08T10:51:59.830Z,61.40
2022-11-08T10:55:05.753Z,59.90
2022-11-08T10:58:29.339Z,58.80
2022-11-08T11:01:31.463Z,58.40
2022-11-08T11:04:33.959Z,56.80
2022-11-08T11:07:36.303Z,57.60
2022-11-08T11:10:42.325Z,56.60
2022-11-08T11:13:44.392Z,56.90
2022-11-08T11:16:58.629Z,57.00
2022-11-08T11:20:00.904Z,57.00
2022-11-08T11:23:02.904Z,56.90
2022-11-08T11:26:16.797Z,57.50
2022-11-08T11:29:36.751Z,58.10
2022-11-08T11:32:39.108Z,59.30
2022-11-08T11:35:53.320Z,57.70
2022-11-08T11:39:01.198Z,55.20
2022-11-08T11:42:45.178Z,55.30
2022-11-08T11:46:08.976Z,56.30
2022-11-08T11:49:19.643Z,56.40
2022-11-08T12:03:41.475Z,55.40
2022-11-08T12:06:53.796Z,51.50
2022-11-08T12:10:19.723Z,52.00
2022-11-08T12:13:33.797Z,51.50
2022-11-08T12:17:06.046Z,53.30
2022-11-08T12:20:07.791Z,53.70
2022-11-08T12:23:31.499Z,54.80
2022-11-08T12:26:42.459Z,55.60
2022-11-08T12:29:56.250Z,55.80
2022-11-08T12:33:25.412Z,54.40
2022-11-08T12:36:42.287Z,55.00
2022-11-08T12:39:52.586Z,54.10
2022-11-08T12:43:00.002Z,54.50
2022-11-08T12:46:11.729Z,58.30
2022-11-08T12:49:27.742Z,59.00
2022-11-08T12:52:41.927Z,59.00
2022-11-08T12:55:47.870Z,64.50
2022-11-08T12:58:51.736Z,63.40
2022-11-08T13:01:56.890Z,64.80
2022-11-08T13:05:04.810Z,61.20
2022-11-08T13:08:06.669Z,61.50
2022-11-08T13:11:19.469Z,59.00
2022-11-08T13:14:22.499Z,60.20
2022-11-08T13:17:26.761Z,61.00
2022-11-08T13:20:47.361Z,62.30
2022-11-08T13:23:49.292Z,63.10
2022-11-08T13:26:53.729Z,61.80
2022-11-08T13:30:19.225Z,63.50
2022-11-08T13:33:32.423Z,62.90
2022-11-08T13:37:05.370Z,62.90
2022-11-08T13:40:12.992Z,62.40
2022-11-08T13:43:21.006Z,65.70
2022-11-08T13:46:22.866Z,65.80
2022-11-08T13:49:24.822Z,66.60
2022-11-08T13:52:45.450Z,65.00
2022-11-08T13:56:17.456Z,65.50
2022-11-08T13:59:31.629Z,68.50
2022-11-08T14:02:34.286Z,66.60
2022-11-08T14:05:46.618Z,67.40
2022-11-08T14:09:30.668Z,63.30
2022-11-08T14:13:10.038Z,65.80
2022-11-08T14:16:20.615Z,62.90
2022-11-08T14:19:25.832Z,60.10
2022-11-08T14:22:30.127Z,60.20
2022-11-08T14:25:35.471Z,61.30
2022-11-08T14:28:41.190Z,63.30
2022-11-08T14:31:43.249Z,64.10
2022-11-08T14:34:45.912Z,65.10
2022-11-08T14:37:48.804Z,65.20
2022-11-08T14:44:14.780Z,66.50
2022-11-08T14:47:25.650Z,68.10
2022-11-08T14:50:34.198Z,69.50
2022-11-08T14:53:51.035Z,70.10
2022-11-08T14:56:53.306Z,70.40
2022-11-08T14:59:56.731Z,73.40
2022-11-08T15:03:01.742Z,74.40
2022-11-08T15:06:13.554Z,72.30
2022-11-08T15:09:25.097Z,72.10
2022-11-08T15:12:42.930Z,71.40
2022-11-08T15:15:54.387Z,72.50
2022-11-08T15:18:56.380Z,72.20
2022-11-08T15:22:21.785Z,73.40
2022-11-08T15:25:34.248Z,73.90
2022-11-08T15:28:38.403Z,75.20
2022-11-08T15:32:01.110Z,76.40
2022-11-08T15:35:04.918Z,76.50
2022-11-08T15:38:29.741Z,77.60
2022-11-08T15:41:40.096Z,78.00
2022-11-08T15:45:02.530Z,78.90
2022-11-08T15:48:07.537Z,79.80
2022-11-08T15:51:09.397Z,79.80
2022-11-08T15:54:11.381Z,79.90
2022-11-08T15:57:13.232Z,79.90
2022-11-08T16:00:17.912Z,80.10
2022-11-08T16:03:19.870Z,80.70
2022-11-08T16:06:21.773Z,81.10
2022-11-08T16:09:23.679Z,81.30
2022-11-08T16:12:25.603Z,81.80
2022-11-08T16:15:30.482Z,81.60
2022-11-08T16:18:32.375Z,81.90
2022-11-08T16:21:34.265Z,82.00
2022-11-08T16:24:36.177Z,82.60
2022-11-08T16:27:38.095Z,82.50
2022-11-08T16:30:40.048Z,82.60
2022-11-08T16:33:46.167Z,82.70
2022-11-08T16:36:49.464Z,82.90
2022-11-08T16:39:51.415Z,83.10
2022-11-08T16:42:53.675Z,83.10
2022-11-08T16:46:06.082Z,83.10
2022-11-08T16:49:19.808Z,83.00
2022-11-08T16:52:21.674Z,82.90
2022-11-08T16:55:23.921Z,83.20
2022-11-08T16:58:26.800Z,83.20
2022-11-08T17:01:33.319Z,83.70
2022-11-08T17:04:35.282Z,83.70
2022-11-08T17:07:37.372Z,83.90
2022-11-08T17:10:39.512Z,84.00
2022-11-08T17:13:41.419Z,84.00
2022-11-08T17:16:43.260Z,83.20
2022-11-08T17:19:45.169Z,83.40
2022-11-08T17:22:48.291Z,83.30
2022-11-08T17:25:50.209Z,83.00
2022-11-08T17:28:55.654Z,83.50
2022-11-08T17:31:57.540Z,83.20
2022-11-08T17:34:59.371Z,83.20
2022-11-08T17:38:01.246Z,83.20
2022-11-08T17:41:05.419Z,83.60
2022-11-08T17:44:07.427Z,84.00
2022-11-08T17:47:09.359Z,84.00
2022-11-08T17:50:13.651Z,83.70
2022-11-08T17:53:15.648Z,83.80
2022-11-08T17:56:17.727Z,83.70
2022-11-08T17:59:19.906Z,84.20
2022-11-08T18:02:21.899Z,84.60
2022-11-08T18:05:24.110Z,84.50
2022-11-08T18:08:28.188Z,84.60
2022-11-08T18:11:30.733Z,84.00
2022-11-08T18:14:32.800Z,84.50
2022-11-08T18:17:35.799Z,84.60
2022-11-08T18:20:42.453Z,84.90
2022-11-08T18:23:47.002Z,84.70
2022-11-08T18:26:49.101Z,84.70
2022-11-08T18:29:51.264Z,84.70
2022-11-08T18:32:53.317Z,84.30
2022-11-08T18:35:55.697Z,84.40
2022-11-08T18:39:00.431Z,84.30
2022-11-08T18:42:02.507Z,84.80
2022-11-08T18:45:04.988Z,84.20
2022-11-08T18:48:06.896Z,83.10
2022-11-08T18:51:12.488Z,83.00
2022-11-08T18:54:14.648Z,83.40
2022-11-08T18:57:17.137Z,83.00
2022-11-08T19:00:19.308Z,83.00
2022-11-08T19:03:21.944Z,82.70
2022-11-08T19:06:26.292Z,82.70
2022-11-08T19:09:28.419Z,83.00
2022-11-08T19:12:30.516Z,82.40
2022-11-08T19:15:32.657Z,82.70
2022-11-08T19:18:35.733Z,83.70
2022-11-08T19:21:38.059Z,83.60
2022-11-08T19:24:40.002Z,83.80
2022-11-08T19:27:42.213Z,83.70
2022-11-08T19:30:52.948Z,82.70
2022-11-08T19:33:55.663Z,82.60
2022-11-08T19:36:57.696Z,82.40
2022-11-08T19:39:59.758Z,83.10
2022-11-08T19:43:01.851Z,83.30
2022-11-08T19:46:05.685Z,84.00
2022-11-08T19:49:07.822Z,83.20
2022-11-08T19:52:09.821Z,83.40
2022-11-08T19:55:12.094Z,83.90
2022-11-08T19:58:14.218Z,84.60
2022-11-08T20:01:23.176Z,85.10
2022-11-08T20:04:25.307Z,84.80
2022-11-08T20:07:27.341Z,84.30
2022-11-08T20:10:29.443Z,84.80
2022-11-08T20:13:31.698Z,84.10
2022-11-08T20:16:37.162Z,84.70
2022-11-08T20:19:39.227Z,84.50
2022-11-08T20:22:44.291Z,84.70
2022-11-08T20:25:49.033Z,85.50
2022-11-08T20:28:56.390Z,84.70
2022-11-08T20:32:00.250Z,85.30
2022-11-08T20:35:04.192Z,85.70
2022-11-08T20:38:06.631Z,85.60
2022-11-08T20:41:12.519Z,85.10
2022-11-08T20:44:14.627Z,85.00
2022-11-08T20:47:16.710Z,84.90
2022-11-08T20:50:18.871Z,84.30
2022-11-08T20:53:20.869Z,84.60
2022-11-08T20:56:24.522Z,84.40
2022-11-08T20:59:26.939Z,84.30
2022-11-08T21:02:29.104Z,84.00
2022-11-08T21:05:31.205Z,84.30
2022-11-08T21:11:58.305Z,84.50
2022-11-08T21:15:00.361Z,85.10
2022-11-08T21:18:02.348Z,85.30
2022-11-08T21:21:14.434Z,85.50
2022-11-08T21:24:16.655Z,84.80
2022-11-08T21:27:18.705Z,83.10
2022-11-08T21:30:20.808Z,86.30
2022-11-08T21:33:23.927Z,85.80
2022-11-08T21:36:28.312Z,85.50
2022-11-08T21:39:31.181Z,86.20
2022-11-08T21:42:39.681Z,86.10
2022-11-08T21:45:43.759Z,86.40
2022-11-08T21:48:46.855Z,86.40
2022-11-08T21:51:49.400Z,86.10
2022-11-08T21:54:51.437Z,86.40
2022-11-08T21:57:53.560Z,85.50
2022-11-08T22:00:55.823Z,85.20
2022-11-08T22:03:58.785Z,85.30
2022-11-08T22:07:01.028Z,84.20
2022-11-08T22:10:04.204Z,83.90
2022-11-08T22:13:06.209Z,83.70
2022-11-08T22:16:08.393Z,85.70
2022-11-08T22:19:10.850Z,84.90
2022-11-08T22:22:13.790Z,85.40
2022-11-08T22:25:15.751Z,86.20
2022-11-08T22:28:18.169Z,86.20
2022-11-08T22:31:20.593Z,85.60
2022-11-08T22:34:22.690Z,87.20
2022-11-08T22:37:24.756Z,87.30
2022-11-08T22:40:26.819Z,88.00
2022-11-08T22:43:28.816Z,87.70
2022-11-08T22:46:30.841Z,87.60
2022-11-08T22:49:32.791Z,88.50
2022-11-08T22:52:34.868Z,88.00
2022-11-08T22:55:36.910Z,88.40
2022-11-08T22:58:39.639Z,88.60
2022-11-08T23:01:41.684Z,88.80
2022-11-08T23:04:43.666Z,89.30
2022-11-08T23:07:45.736Z,89.00
2022-11-08T23:10:48.451Z,89.00
2022-11-08T23:13:50.770Z,89.00
2022-11-08T23:16:52.732Z,89.50
2022-11-08T23:19:54.673Z,89.10
2022-11-08T23:22:56.772Z,88.70
2022-11-08T23:25:58.849Z,88.20
2022-11-08T23:29:00.982Z,88.20
2022-11-08T23:32:03.109Z,88.40
2022-11-08T23:35:05.303Z,87.70
2022-11-08T23:38:07.287Z,88.70
2022-11-08T23:41:10.065Z,88.60
2022-11-08T23:44:12.143Z,88.60
2022-11-08T23:47:16.570Z,88.60
2022-11-08T23:50:18.587Z,89.20
2022-11-08T23:53:22.457Z,89.30
2022-11-08T23:56:26.765Z,88.60
2022-11-08T23:59:28.669Z,88.90
